createdAt,value
2022-12-13T00:00:58.482Z,34.90
2022-12-13T00:03:25.769Z,29.27
2022-12-13T00:05:54.592Z,33.30
2022-12-13T00:08:21.990Z,31.73
2022-12-13T00:10:59.106Z,30.80
2022-12-13T00:13:28.512Z,30.87
2022-12-13T00:16:00.169Z,34.07
2022-12-13T00:18:27.981Z,32.13
2022-12-13T00:20:55.314Z,33.63
2022-12-13T00:23:23.395Z,31.00
2022-12-13T00:25:50.768Z,30.63
2022-12-13T00:28:18.440Z,31.20
2022-12-13T00:30:45.818Z,28.67
2022-12-13T00:33:13.128Z,30.83
2022-12-13T00:35:41.570Z,30.87
2022-12-13T00:38:10.452Z,27.73
2022-12-13T00:40:37.750Z,29.50
2022-12-13T00:43:05.038Z,29.27
2022-12-13T00:45:33.401Z,29.83
2022-12-13T00:48:00.727Z,29.43
2022-12-13T00:50:28.095Z,30.17
2022-12-13T00:52:55.409Z,29.03
2022-12-13T00:55:22.728Z,30.30
2022-12-13T00:57:50.082Z,27.57
2022-12-13T01:00:17.492Z,28.97
2022-12-13T01:02:44.895Z,28.10
2022-12-13T01:05:12.716Z,28.03
2022-12-13T01:07:44.341Z,30.30
2022-12-13T01:10:12.142Z,28.43
2022-12-13T01:12:40.030Z,27.13
2022-12-13T01:15:07.923Z,26.93
2022-12-13T01:17:35.745Z,26.50
2022-12-13T01:20:03.670Z,27.03
2022-12-13T01:22:31.237Z,24.50
2022-12-13T01:24:58.551Z,25.63
2022-12-13T01:27:25.839Z,25.10
2022-12-13T01:29:53.116Z,26.87
2022-12-13T01:32:20.400Z,25.70
2022-12-13T01:34:47.798Z,24.60
2022-12-13T01:37:17.479Z,26.40
2022-12-13T01:39:44.812Z,27.43
2022-12-13T01:42:14.711Z,24.67
2022-12-13T01:44:57.340Z,25.53
2022-12-13T01:47:26.164Z,24.47
2022-12-13T01:49:55.492Z,25.10
2022-12-13T01:52:24.060Z,24.63
2022-12-13T01:54:53.122Z,27.13
2022-12-13T01:57:22.107Z,26.17
2022-12-13T01:59:50.350Z,25.80
2022-12-13T02:02:17.681Z,26.53
2022-12-13T02:04:45.037Z,25.90
2022-12-13T02:07:22.935Z,28.07
2022-12-13T02:09:57.233Z,25.77
2022-12-13T02:12:30.234Z,25.87
2022-12-13T02:15:01.750Z,26.53
2022-12-13T02:17:47.445Z,27.87
2022-12-13T02:20:21.500Z,27.07
2022-12-13T02:23:04.630Z,26.67
2022-12-13T02:25:50.692Z,27.57
2022-12-13T02:28:36.178Z,28.70
2022-12-13T02:31:15.629Z,27.43
2022-12-13T02:33:49.194Z,24.93
2022-12-13T02:36:35.986Z,27.67
2022-12-13T02:39:12.306Z,28.87
2022-12-13T02:41:49.890Z,25.70
2022-12-13T02:44:22.159Z,25.60
2022-12-13T02:47:01.952Z,27.43
2022-12-13T02:49:31.800Z,25.37
2022-12-13T02:51:59.996Z,25.97
2022-12-13T02:54:27.325Z,25.73
2022-12-13T02:56:55.791Z,31.90
2022-12-13T02:59:24.853Z,27.97
2022-12-13T03:01:54.954Z,27.90
2022-12-13T03:05:14.714Z,29.63
2022-12-13T03:08:01.682Z,29.83
2022-12-13T03:10:33.239Z,28.90
2022-12-13T03:13:22.263Z,30.63
2022-12-13T03:16:00.735Z,28.13
2022-12-13T03:18:28.862Z,28.00
2022-12-13T03:21:03.643Z,26.50
2022-12-13T03:23:31.472Z,28.87
2022-12-13T03:26:22.031Z,28.70
2022-12-13T03:28:49.326Z,30.87
2022-12-13T03:31:17.058Z,27.87
2022-12-13T03:33:44.438Z,25.80
2022-12-13T03:36:12.387Z,29.50
2022-12-13T03:38:40.619Z,31.50
2022-12-13T03:41:10.118Z,29.50
2022-12-13T03:43:37.695Z,26.43
2022-12-13T03:46:05.053Z,26.67
2022-12-13T03:48:32.361Z,30.57
2022-12-13T03:51:00.082Z,28.03
2022-12-13T03:53:33.132Z,31.20
2022-12-13T03:56:01.931Z,29.37
2022-12-13T03:58:35.321Z,26.83
2022-12-13T04:01:04.879Z,25.43
2022-12-13T04:03:32.140Z,28.23
2022-12-13T04:05:59.412Z,27.10
2022-12-13T04:08:26.754Z,27.57
2022-12-13T04:10:54.134Z,28.73
2022-12-13T04:13:33.666Z,29.07
2022-12-13T04:16:01.654Z,28.27
2022-12-13T04:18:29.073Z,27.53
2022-12-13T04:20:57.393Z,27.13
2022-12-13T04:23:24.922Z,28.03
2022-12-13T04:25:52.355Z,24.57
2022-12-13T04:28:22.526Z,27.70
2022-12-13T04:30:53.505Z,29.27
2022-12-13T04:33:22.231Z,28.23
2022-12-13T04:35:49.826Z,28.40
2022-12-13T04:38:17.253Z,25.43
2022-12-13T04:40:44.615Z,28.63
2022-12-13T04:43:11.890Z,28.60
2022-12-13T04:45:39.415Z,26.50
2022-12-13T04:48:06.869Z,27.33
2022-12-13T04:50:34.440Z,28.13
2022-12-13T04:53:01.787Z,27.63
2022-12-13T04:55:29.067Z,28.27
2022-12-13T04:57:56.337Z,27.47
2022-12-13T05:00:23.635Z,27.27
2022-12-13T05:02:51.082Z,26.03
2022-12-13T05:05:18.898Z,27.47
2022-12-13T05:07:46.558Z,28.13
2022-12-13T05:10:35.849Z,26.17
2022-12-13T05:13:01.571Z,27.67
2022-12-13T05:15:30.130Z,28.33
2022-12-13T05:18:10.288Z,25.00
2022-12-13T05:20:39.162Z,26.33
2022-12-13T05:23:06.663Z,26.37
2022-12-13T05:25:37.324Z,26.03
2022-12-13T05:29:22.752Z,27.80
2022-12-13T05:31:51.067Z,24.33
2022-12-13T05:34:19.719Z,28.47
2022-12-13T05:36:47.195Z,27.93
2022-12-13T05:39:28.000Z,27.77
2022-12-13T05:42:01.972Z,35.95
2022-12-13T05:44:30.854Z,28.17
2022-12-13T05:46:58.360Z,29.60
2022-12-13T05:49:29.808Z,24.60
2022-12-13T05:51:57.442Z,28.13
2022-12-13T05:54:24.875Z,26.90
2022-12-13T05:56:52.256Z,26.40
2022-12-13T05:59:19.813Z,28.17
2022-12-13T06:01:47.225Z,28.67
2022-12-13T06:04:22.798Z,27.87
2022-12-13T06:06:51.586Z,26.33
2022-12-13T06:09:19.728Z,29.33
2022-12-13T06:11:47.177Z,28.77
2022-12-13T06:14:22.828Z,27.23
2022-12-13T06:16:51.613Z,27.63
2022-12-13T06:19:19.334Z,25.50
2022-12-13T06:21:46.906Z,28.03
2022-12-13T06:24:15.897Z,29.77
2022-12-13T06:26:45.283Z,25.57
2022-12-13T06:29:24.040Z,25.17
2022-12-13T06:32:01.271Z,24.80
2022-12-13T06:34:31.372Z,28.80
2022-12-13T06:36:58.857Z,25.87
2022-12-13T06:39:32.965Z,26.37
2022-12-13T06:42:01.816Z,28.27
2022-12-13T06:44:29.192Z,26.63
2022-12-13T06:47:11.880Z,26.63
2022-12-13T06:49:41.658Z,25.43
2022-12-13T06:52:12.593Z,26.57
2022-12-13T06:54:40.285Z,25.23
2022-12-13T06:57:08.093Z,26.07
2022-12-13T06:59:35.724Z,23.30
2022-12-13T07:02:04.021Z,26.73
2022-12-13T07:04:32.444Z,23.87
2022-12-13T07:07:01.416Z,27.17
2022-12-13T07:09:34.456Z,23.50
2022-12-13T07:12:02.133Z,26.13
2022-12-13T07:14:32.544Z,25.47
2022-12-13T07:17:08.692Z,24.27
2022-12-13T07:19:36.725Z,22.50
2022-12-13T07:22:05.839Z,24.63
2022-12-13T07:24:34.712Z,24.73
2022-12-13T07:27:02.533Z,25.40
2022-12-13T07:29:29.978Z,25.57
2022-12-13T07:32:01.834Z,26.03
2022-12-13T07:34:30.107Z,26.77
2022-12-13T07:36:57.573Z,25.80
2022-12-13T07:39:27.983Z,24.33
2022-12-13T07:41:56.328Z,25.20
2022-12-13T07:44:24.466Z,26.53
2022-12-13T07:46:51.965Z,26.57
2022-12-13T07:49:19.389Z,25.07
2022-12-13T07:51:48.038Z,25.50
2022-12-13T07:54:15.665Z,27.13
2022-12-13T07:56:43.088Z,24.80
2022-12-13T07:59:10.924Z,25.30
2022-12-13T08:01:38.536Z,25.17
2022-12-13T08:04:06.575Z,27.23
2022-12-13T08:06:37.968Z,28.40
2022-12-13T08:09:06.046Z,29.73
2022-12-13T08:11:33.646Z,27.57
2022-12-13T08:14:01.020Z,27.50
2022-12-13T08:16:30.466Z,26.93
2022-12-13T08:19:01.597Z,28.40
2022-12-13T08:24:21.211Z,29.43
2022-12-13T08:26:48.486Z,24.47
2022-12-13T08:29:23.187Z,28.73
2022-12-13T08:32:02.256Z,29.77
2022-12-13T08:34:30.051Z,29.20
2022-12-13T08:37:02.126Z,27.07
2022-12-13T08:39:34.182Z,22.63
2022-12-13T08:42:15.753Z,28.40
2022-12-13T08:44:45.130Z,28.67
2022-12-13T08:47:12.543Z,29.13
2022-12-13T08:49:51.178Z,28.47
2022-12-13T08:52:19.459Z,29.70
2022-12-13T08:54:46.787Z,29.83
2022-12-13T08:57:14.061Z,28.20
2022-12-13T08:59:41.415Z,29.60
2022-12-13T09:02:12.519Z,43.10
2022-12-13T09:04:39.913Z,34.13
2022-12-13T09:07:07.431Z,29.37
2022-12-13T09:09:35.277Z,31.63
2022-12-13T09:12:10.994Z,29.70
2022-12-13T09:14:52.313Z,29.13
2022-12-13T09:17:30.501Z,29.67
2022-12-13T09:20:09.769Z,28.70
2022-12-13T09:22:54.383Z,29.33
2022-12-13T09:25:37.475Z,32.13
2022-12-13T09:28:09.384Z,33.30
2022-12-13T09:30:37.245Z,30.27
2022-12-13T09:33:18.186Z,32.03
2022-12-13T09:35:52.580Z,31.47
2022-12-13T09:38:20.124Z,29.80
2022-12-13T09:40:49.166Z,31.57
2022-12-13T09:43:31.329Z,31.53
2022-12-13T09:46:03.867Z,32.27
2022-12-13T09:48:35.008Z,29.97
2022-12-13T09:51:26.112Z,30.90
2022-12-13T09:53:51.760Z,31.57
2022-12-13T09:56:23.749Z,29.40
2022-12-13T09:58:51.970Z,31.03
2022-12-13T10:01:23.051Z,29.47
2022-12-13T10:03:55.290Z,26.30
2022-12-13T10:06:25.061Z,30.27
2022-12-13T10:08:57.883Z,29.67
2022-12-13T10:11:32.436Z,31.40
2022-12-13T10:14:03.110Z,31.27
2022-12-13T10:16:43.754Z,31.10
2022-12-13T10:19:30.246Z,30.57
2022-12-13T10:22:01.294Z,31.50
2022-12-13T10:24:49.983Z,30.87
2022-12-13T10:27:18.413Z,31.73
2022-12-13T10:30:05.655Z,31.40
2022-12-13T10:32:37.475Z,31.87
2022-12-13T10:35:25.639Z,33.67
2022-12-13T10:37:53.235Z,29.03
2022-12-13T10:40:32.049Z,28.33
2022-12-13T10:43:07.291Z,32.20
2022-12-13T10:45:34.747Z,31.20
2022-12-13T10:48:04.351Z,32.77
2022-12-13T10:50:32.603Z,32.97
2022-12-13T10:53:01.003Z,31.63
2022-12-13T10:55:30.814Z,31.20
2022-12-13T10:58:00.038Z,32.90
2022-12-13T11:00:37.602Z,31.73
2022-12-13T11:03:05.562Z,31.87
2022-12-13T11:05:34.398Z,32.50
2022-12-13T11:08:15.211Z,28.93
2022-12-13T11:10:42.659Z,31.33
2022-12-13T11:13:22.961Z,30.83
2022-12-13T11:15:55.200Z,34.57
2022-12-13T11:18:24.340Z,32.47
2022-12-13T11:20:57.305Z,30.30
2022-12-13T11:23:33.572Z,33.97
2022-12-13T11:26:03.276Z,31.40
2022-12-13T11:28:36.599Z,33.03
2022-12-13T11:31:22.634Z,32.87
2022-12-13T11:33:49.944Z,31.30
2022-12-13T11:36:32.870Z,28.60
2022-12-13T11:39:03.274Z,32.27
2022-12-13T11:41:33.261Z,30.63
2022-12-13T11:44:15.940Z,30.10
2022-12-13T11:46:54.963Z,30.07
2022-12-13T11:49:30.570Z,33.30
2022-12-13T11:52:01.341Z,31.90
2022-12-13T11:54:38.639Z,33.67
2022-12-13T11:57:12.898Z,31.47
2022-12-13T11:59:43.237Z,30.43
2022-12-13T12:02:29.601Z,32.67
2022-12-13T12:05:00.732Z,35.20
2022-12-13T12:07:33.582Z,33.83
2022-12-13T12:10:16.297Z,31.23
2022-12-13T12:12:45.694Z,32.43
2022-12-13T12:15:34.096Z,30.87
2022-12-13T12:18:16.498Z,32.53
2022-12-13T12:20:55.987Z,33.43
2022-12-13T12:23:30.423Z,34.40
2022-12-13T12:26:08.431Z,27.87
2022-12-13T12:29:01.259Z,31.20
2022-12-13T12:31:33.712Z,27.27
2022-12-13T12:34:19.572Z,32.67
2022-12-13T12:36:58.247Z,34.83
2022-12-13T12:39:39.348Z,30.20
2022-12-13T12:42:09.577Z,30.73
2022-12-13T12:45:00.454Z,30.20
2022-12-13T12:47:57.516Z,30.20
2022-12-13T12:50:24.243Z,29.80
2022-12-13T12:53:08.154Z,30.63
2022-12-13T12:55:38.187Z,32.17
2022-12-13T12:58:15.463Z,31.53
2022-12-13T13:00:50.760Z,31.10
2022-12-13T13:03:27.616Z,29.30
2022-12-13T13:06:01.890Z,31.50
2022-12-13T13:08:34.111Z,31.57
2022-12-13T13:11:02.354Z,32.03
2022-12-13T13:13:46.070Z,29.03
2022-12-13T13:16:43.155Z,30.87
2022-12-13T13:19:13.253Z,31.33
2022-12-13T13:21:40.578Z,29.57
2022-12-13T13:24:07.849Z,28.57
2022-12-13T13:26:45.683Z,27.70
2022-12-13T13:29:27.694Z,28.40
2022-12-13T13:32:01.943Z,29.90
2022-12-13T13:34:38.486Z,33.53
2022-12-13T13:37:26.190Z,29.47
2022-12-13T13:39:54.034Z,31.03
2022-12-13T13:42:22.772Z,29.87
2022-12-13T13:44:50.201Z,30.27
2022-12-13T13:47:17.509Z,30.33
2022-12-13T13:50:02.260Z,31.20
2022-12-13T13:52:33.096Z,30.90
2022-12-13T13:55:23.575Z,31.27
2022-12-13T13:58:10.922Z,30.30
2022-12-13T14:00:57.567Z,31.10
2022-12-13T14:03:33.857Z,31.63
2022-12-13T14:06:05.241Z,33.87
2022-12-13T14:08:35.767Z,33.53
2022-12-13T14:11:22.190Z,33.70
2022-12-13T14:14:21.703Z,28.93
2022-12-13T14:17:02.505Z,30.67
2022-12-13T14:19:32.926Z,29.60
2022-12-13T14:22:17.858Z,30.03
2022-12-13T14:24:51.265Z,30.90
2022-12-13T14:27:21.988Z,28.00
2022-12-13T14:29:57.856Z,31.73
2022-12-13T14:32:30.807Z,32.97
2022-12-13T14:34:58.655Z,28.17
2022-12-13T14:37:28.080Z,29.80
2022-12-13T14:39:55.516Z,30.90
2022-12-13T14:42:24.860Z,33.30
2022-12-13T14:44:52.452Z,31.53
2022-12-13T14:47:20.519Z,30.40
2022-12-13T14:49:50.719Z,29.87
2022-12-13T14:52:26.364Z,30.93
2022-12-13T14:54:59.570Z,30.07
2022-12-13T14:57:28.445Z,30.63
2022-12-13T14:59:57.005Z,30.17
2022-12-13T15:02:30.713Z,28.73
2022-12-13T15:05:00.414Z,30.27
2022-12-13T15:07:38.424Z,31.70
2022-12-13T15:10:28.610Z,28.80
2022-12-13T15:12:56.106Z,30.73
2022-12-13T15:15:31.596Z,35.10
2022-12-13T15:18:11.198Z,31.00
2022-12-13T15:20:42.290Z,34.30
2022-12-13T15:23:22.180Z,33.87
2022-12-13T15:26:08.670Z,31.10
2022-12-13T15:28:37.819Z,30.00
2022-12-13T15:31:05.921Z,29.50
2022-12-13T15:33:38.093Z,30.87
2022-12-13T15:36:15.996Z,30.83
2022-12-13T15:39:03.536Z,33.17
2022-12-13T15:41:36.772Z,32.53
2022-12-13T15:44:07.981Z,32.70
2022-12-13T15:46:37.965Z,31.43
2022-12-13T15:49:06.865Z,31.00
2022-12-13T15:51:34.144Z,32.30
2022-12-13T15:54:06.620Z,31.37
2022-12-13T15:56:52.801Z,34.23
2022-12-13T15:59:27.779Z,34.93
2022-12-13T16:01:58.441Z,31.43
2022-12-13T16:04:28.419Z,33.77
2022-12-13T16:06:56.165Z,34.47
2022-12-13T16:09:25.321Z,33.57
2022-12-13T16:11:52.587Z,32.70
2022-12-13T16:14:28.479Z,34.47
2022-12-13T16:16:56.184Z,35.37
2022-12-13T16:19:23.812Z,32.53
2022-12-13T16:21:51.334Z,33.73
2022-12-13T16:24:18.806Z,34.20
2022-12-13T16:26:47.219Z,34.13
2022-12-13T16:29:16.400Z,32.27
2022-12-13T16:31:44.175Z,32.37
2022-12-13T16:34:11.630Z,34.33
2022-12-13T16:36:39.354Z,31.17
2022-12-13T16:39:07.755Z,42.47
2022-12-13T16:41:38.731Z,38.63
2022-12-13T16:44:08.200Z,32.60
2022-12-13T16:47:13.709Z,34.07
2022-12-13T16:49:25.396Z,34.50
2022-12-13T16:51:52.691Z,36.20
2022-12-13T16:54:20.765Z,37.63
2022-12-13T16:56:48.806Z,36.30
2022-12-13T16:59:17.042Z,35.10
2022-12-13T17:01:45.392Z,35.40
2022-12-13T17:04:19.245Z,35.87
2022-12-13T17:06:47.826Z,33.70
2022-12-13T17:09:15.113Z,35.97
2022-12-13T17:11:42.637Z,36.53
2022-12-13T17:14:10.291Z,39.97
2022-12-13T17:16:37.658Z,40.90
2022-12-13T17:19:05.479Z,39.60
2022-12-13T17:21:32.804Z,40.20
2022-12-13T17:24:01.400Z,39.60
2022-12-13T17:26:29.366Z,40.23
2022-12-13T17:28:56.674Z,36.63
2022-12-13T17:31:24.040Z,38.40
2022-12-13T17:33:52.376Z,37.40
2022-12-13T17:36:19.660Z,38.53
2022-12-13T17:38:49.397Z,38.40
2022-12-13T17:41:18.282Z,38.80
2022-12-13T17:43:45.843Z,36.83
2022-12-13T17:46:17.556Z,36.83
2022-12-13T17:48:48.537Z,38.43
2022-12-13T17:51:15.906Z,35.67
2022-12-13T17:53:44.272Z,36.63
2022-12-13T17:56:12.966Z,38.87
2022-12-13T17:58:40.482Z,36.60
2022-12-13T18:01:15.610Z,36.07
2022-12-13T18:03:43.606Z,35.43
2022-12-13T18:06:11.144Z,32.57
2022-12-13T18:08:39.365Z,35.20
2022-12-13T18:13:55.423Z,37.27
2022-12-13T18:16:23.937Z,35.50
2022-12-13T18:18:55.468Z,35.67
2022-12-13T18:21:23.552Z,33.83
2022-12-13T18:23:55.656Z,38.63
2022-12-13T18:26:23.959Z,36.87
2022-12-13T18:28:51.567Z,36.97
2022-12-13T18:31:20.830Z,39.27
2022-12-13T18:33:49.463Z,35.80
2022-12-13T18:36:17.311Z,37.47
2022-12-13T18:38:44.731Z,36.67
2022-12-13T18:41:14.892Z,35.87
2022-12-13T18:43:42.894Z,37.37
2022-12-13T18:46:10.829Z,35.00
2022-12-13T18:48:38.321Z,34.17
2022-12-13T18:51:07.671Z,35.37
2022-12-13T18:53:35.828Z,33.23
2022-12-13T18:56:18.417Z,33.47
2022-12-13T18:58:48.332Z,31.97
2022-12-13T19:01:16.445Z,31.60
2022-12-13T19:03:46.668Z,30.03
2022-12-13T19:06:18.396Z,37.07
2022-12-13T19:08:49.612Z,35.30
2022-12-13T19:11:18.017Z,34.47
2022-12-13T19:13:45.520Z,34.27
2022-12-13T19:16:15.313Z,34.40
2022-12-13T19:18:42.719Z,35.10
2022-12-13T19:21:11.203Z,37.13
2022-12-13T19:23:40.768Z,35.77
2022-12-13T19:26:09.287Z,33.63
2022-12-13T19:28:36.966Z,34.53
2022-12-13T19:31:07.596Z,34.70
2022-12-13T19:33:35.626Z,28.50
2022-12-13T19:36:03.671Z,27.73
2022-12-13T19:38:36.205Z,32.40
2022-12-13T19:41:11.444Z,28.03
2022-12-13T19:43:38.861Z,27.93
2022-12-13T19:46:07.325Z,26.70
2022-12-13T19:48:37.651Z,30.07
2022-12-13T19:51:06.310Z,31.17
2022-12-13T19:53:33.985Z,32.00
2022-12-13T19:56:02.495Z,30.13
2022-12-13T19:58:32.511Z,29.47
2022-12-13T20:01:03.555Z,29.57
2022-12-13T20:03:34.969Z,31.27
2022-12-13T20:06:02.727Z,28.43
2022-12-13T20:08:30.521Z,29.23
2022-12-13T20:11:01.462Z,30.30
2022-12-13T20:13:29.289Z,28.30
2022-12-13T20:15:59.540Z,30.13
2022-12-13T20:18:27.173Z,30.20
2022-12-13T20:21:11.786Z,29.07
2022-12-13T20:23:39.696Z,28.37
2022-12-13T20:26:08.488Z,26.90
2022-12-13T20:28:35.814Z,28.60
2022-12-13T20:31:10.893Z,28.27
2022-12-13T20:33:40.540Z,31.13
2022-12-13T20:36:27.214Z,28.13
2022-12-13T20:38:56.434Z,29.40
2022-12-13T20:41:24.892Z,27.53
2022-12-13T20:43:55.110Z,25.63
2022-12-13T20:46:23.005Z,29.90
2022-12-13T20:48:50.616Z,26.70
2022-12-13T20:51:19.203Z,29.47
2022-12-13T20:53:47.538Z,30.87
2022-12-13T20:56:18.739Z,32.43
2022-12-13T20:58:46.551Z,34.13
2022-12-13T21:01:21.157Z,28.73
2022-12-13T21:03:48.560Z,31.30
2022-12-13T21:06:16.170Z,29.83
2022-12-13T21:08:52.558Z,32.50
2022-12-13T21:11:30.048Z,32.47
2022-12-13T21:14:05.378Z,31.80
2022-12-13T21:16:36.991Z,29.50
2022-12-13T21:19:04.950Z,30.70
2022-12-13T21:21:32.577Z,34.23
2022-12-13T21:24:00.546Z,35.50
2022-12-13T21:26:33.279Z,35.27
2022-12-13T21:29:05.043Z,34.47
2022-12-13T21:31:32.655Z,34.93
2022-12-13T21:34:00.585Z,34.87
2022-12-13T21:36:32.213Z,30.43
2022-12-13T21:39:00.772Z,31.57
2022-12-13T21:41:28.506Z,27.10
2022-12-13T21:43:56.130Z,30.80
2022-12-13T21:46:31.270Z,32.77
2022-12-13T21:49:12.624Z,34.80
2022-12-13T21:51:44.609Z,33.40
2022-12-13T21:54:14.806Z,31.83
2022-12-13T21:57:00.701Z,29.73
2022-12-13T21:59:28.704Z,30.10
2022-12-13T22:02:13.228Z,31.87
2022-12-13T22:04:43.669Z,27.43
2022-12-13T22:07:12.162Z,27.33
2022-12-13T22:09:39.426Z,25.60
2022-12-13T22:12:08.210Z,25.17
2022-12-13T22:14:35.541Z,26.50
2022-12-13T22:17:02.898Z,28.07
2022-12-13T22:19:30.215Z,28.37
2022-12-13T22:21:57.440Z,27.97
2022-12-13T22:24:24.727Z,29.07
2022-12-13T22:26:51.976Z,28.00
2022-12-13T22:29:19.253Z,26.60
2022-12-13T22:31:48.852Z,27.27
2022-12-13T22:34:16.796Z,27.67
2022-12-13T22:36:44.655Z,26.83
2022-12-13T22:39:18.907Z,28.73
2022-12-13T22:41:53.911Z,27.20
2022-12-13T22:44:21.665Z,28.07
2022-12-13T22:46:51.201Z,24.80
2022-12-13T22:49:27.596Z,27.10
2022-12-13T22:51:54.987Z,27.83
2022-12-13T22:54:22.257Z,27.40
2022-12-13T22:56:50.438Z,27.23
2022-12-13T22:59:18.130Z,24.97
2022-12-13T23:01:47.458Z,27.63
2022-12-13T23:04:18.407Z,27.10
2022-12-13T23:06:45.872Z,25.17
2022-12-13T23:09:13.937Z,29.23
2022-12-13T23:12:00.382Z,26.07
2022-12-13T23:14:29.477Z,25.37
2022-12-13T23:16:57.046Z,24.17
2022-12-13T23:19:48.860Z,26.67
2022-12-13T23:22:12.116Z,25.63
2022-12-13T23:24:39.373Z,25.37
2022-12-13T23:27:06.639Z,26.87
2022-12-13T23:29:33.953Z,25.43
2022-12-13T23:32:01.225Z,25.60
2022-12-13T23:34:28.492Z,25.83
2022-12-13T23:36:55.746Z,23.90
2022-12-13T23:39:23.084Z,23.37
2022-12-13T23:41:50.328Z,23.87
2022-12-13T23:44:17.561Z,24.63
2022-12-13T23:46:49.146Z,26.63
2022-12-13T23:49:17.073Z,26.40
2022-12-13T23:51:44.959Z,27.73
2022-12-13T23:54:16.629Z,25.83
2022-12-13T23:56:44.119Z,24.93
2022-12-13T23:59:11.664Z,25.53
